createdAt,value
2023-03-29T00:00:03.003Z,80.0
2023-03-29T00:15:02.264Z,81.8
2023-03-29T00:30:02.705Z,83.0
2023-03-29T00:45:03.200Z,83.4
2023-03-29T01:00:02.587Z,84.6
2023-03-29T01:15:03.057Z,85.0
2023-03-29T01:30:02.453Z,85.0
2023-03-29T01:45:03.037Z,85.7
2023-03-29T02:00:02.317Z,86.0
2023-03-29T02:15:02.941Z,86.0
2023-03-29T02:30:02.171Z,86.6
2023-03-29T02:45:02.650Z,87.0
2023-03-29T03:00:03.136Z,87.1
2023-03-29T03:15:02.506Z,87.0
2023-03-29T03:30:03.031Z,86.6
2023-03-29T03:45:02.361Z,86.4
2023-03-29T04:00:03.023Z,86.2
2023-03-29T04:15:02.257Z,85.9
2023-03-29T04:30:02.713Z,85.6
2023-03-29T04:45:03.145Z,85.4
2023-03-29T05:00:02.583Z,85.1
2023-03-29T05:15:03.077Z,84.7
2023-03-29T05:30:02.456Z,84.2
2023-03-29T05:45:03.072Z,83.9
2023-03-29T06:00:02.331Z,83.2
2023-03-29T06:15:02.761Z,82.6
2023-03-29T06:30:02.201Z,82.3
2023-03-29T06:45:02.613Z,83.4
2023-03-29T07:00:03.088Z,85.4
2023-03-29T07:15:02.500Z,87.0
2023-03-29T07:30:03.082Z,87.9
2023-03-29T07:45:02.417Z,88.4
2023-03-29T08:00:02.827Z,88.6
2023-03-29T08:15:02.254Z,89.0
2023-03-29T08:30:02.676Z,88.8
2023-03-29T08:45:03.133Z,88.5
2023-03-29T09:00:02.548Z,87.3
2023-03-29T09:15:03.090Z,85.1
2023-03-29T09:30:02.401Z,83.9
2023-03-29T09:45:03.084Z,82.7
2023-03-29T10:00:02.331Z,80.7
2023-03-29T10:15:02.764Z,79.4
2023-03-29T10:30:02.173Z,80.1
2023-03-29T10:45:02.644Z,81.7
2023-03-29T11:00:03.115Z,81.5
2023-03-29T11:15:02.489Z,79.3
2023-03-29T11:30:03.120Z,83.5
2023-03-29T11:45:02.348Z,86.8
2023-03-29T12:00:02.800Z,88.1
2023-03-29T12:15:03.246Z,88.3
2023-03-29T12:30:02.649Z,89.9
2023-03-29T12:45:03.136Z,90.6
2023-03-29T13:00:02.548Z,89.9
2023-03-29T13:15:03.137Z,89.4
2023-03-29T13:30:02.427Z,88.3
2023-03-29T13:45:02.890Z,88.1
2023-03-29T14:00:02.359Z,88.8
2023-03-29T14:15:02.755Z,89.2
2023-03-29T14:30:02.228Z,88.7
2023-03-29T14:45:02.625Z,88.3
2023-03-29T15:00:03.201Z,88.8
2023-03-29T15:15:02.546Z,88.1
2023-03-29T15:30:03.220Z,87.9
2023-03-29T15:45:02.406Z,87.4
2023-03-29T16:00:02.843Z,86.8
2023-03-29T16:15:02.274Z,86.2
2023-03-29T16:30:02.703Z,85.5
2023-03-29T16:45:03.196Z,85.2
2023-03-29T17:00:02.583Z,85.1
2023-03-29T17:15:03.168Z,86.0
2023-03-29T17:30:02.443Z,86.3
2023-03-29T17:45:02.916Z,87.6
2023-03-29T18:00:02.333Z,89.0
2023-03-29T18:15:02.811Z,89.5
2023-03-29T18:30:02.228Z,90.3
2023-03-29T18:45:02.713Z,91.3
2023-03-29T19:00:03.199Z,92.6
2023-03-29T19:15:02.571Z,94.1
2023-03-29T19:30:03.205Z,94.5
2023-03-29T19:45:02.441Z,94.8
2023-03-29T20:00:02.862Z,95.1
2023-03-29T20:15:02.279Z,95.5
2023-03-29T20:30:02.718Z,95.7
2023-03-29T20:45:03.217Z,95.8
2023-03-29T21:00:02.555Z,95.8
2023-03-29T21:15:03.262Z,96.0
2023-03-29T21:30:02.477Z,96.0
2023-03-29T21:45:02.907Z,96.1
2023-03-29T22:00:02.418Z,96.3
2023-03-29T22:15:02.760Z,96.5
2023-03-29T22:30:02.303Z,96.5
2023-03-29T22:45:02.656Z,96.7
2023-03-29T23:00:03.246Z,96.9
2023-03-29T23:15:02.550Z,97.2
2023-03-29T23:30:03.217Z,97.2
2023-03-29T23:45:02.448Z,97.3
